sensor_id;sensor_type;location;lat;lon;timestamp;pressure;altitude;pressure_sealevel;temperature;humidity
30873;BME280;17579;42.690;2.586;2023-11-19T00:00:26;97776.75;;;16.72;41.58
30873;BME280;17579;42.690;2.586;2023-11-19T00:03:12;97774.56;;;16.75;41.54
30873;BME280;17579;42.690;2.586;2023-11-19T00:05:39;97769.59;;;16.72;41.55
30873;BME280;17579;42.690;2.586;2023-11-19T00:08:04;97774.25;;;16.70;41.29
30873;BME280;17579;42.690;2.586;2023-11-19T00:10:37;97776.25;;;16.68;41.31
30873;BME280;17579;42.690;2.586;2023-11-19T00:13:18;97774.59;;;16.67;41.45
30873;BME280;17579;42.690;2.586;2023-11-19T00:15:53;97768.91;;;16.62;41.55
30873;BME280;17579;42.690;2.586;2023-11-19T00:18:18;97773.25;;;16.63;41.68
30873;BME280;17579;42.690;2.586;2023-11-19T00:20:53;97769.59;;;16.56;41.74
30873;BME280;17579;42.690;2.586;2023-11-19T00:23:18;97763.09;;;16.58;41.50
30873;BME280;17579;42.690;2.586;2023-11-19T00:25:47;97764.94;;;16.58;41.80
30873;BME280;17579;42.690;2.586;2023-11-19T00:28:32;97764.44;;;16.54;42.13
30873;BME280;17579;42.690;2.586;2023-11-19T00:31:00;97763.75;;;16.60;41.63
30873;BME280;17579;42.690;2.586;2023-11-19T00:33:26;97765.59;;;16.60;41.38
30873;BME280;17579;42.690;2.586;2023-11-19T00:35:52;97760.09;;;16.61;41.75
30873;BME280;17579;42.690;2.586;2023-11-19T00:38:18;97761.59;;;16.64;41.70
30873;BME280;17579;42.690;2.586;2023-11-19T00:40:52;97764.25;;;16.64;41.74
30873;BME280;17579;42.690;2.586;2023-11-19T00:43:27;97767.63;;;16.58;41.83
30873;BME280;17579;42.690;2.586;2023-11-19T00:45:53;97759.25;;;16.61;41.97
30873;BME280;17579;42.690;2.586;2023-11-19T00:48:18;97769.25;;;16.59;41.70
30873;BME280;17579;42.690;2.586;2023-11-19T00:50:44;97767.63;;;16.58;41.71
30873;BME280;17579;42.690;2.586;2023-11-19T00:53:23;97764.09;;;16.57;41.56
30873;BME280;17579;42.690;2.586;2023-11-19T00:55:58;97762.41;;;16.56;41.75
30873;BME280;17579;42.690;2.586;2023-11-19T00:58:34;97763.28;;;16.57;41.71
30873;BME280;17579;42.690;2.586;2023-11-19T01:01:19;97766.94;;;16.56;41.84
30873;BME280;17579;42.690;2.586;2023-11-19T01:04:05;97761.13;;;16.52;42.56
30873;BME280;17579;42.690;2.586;2023-11-19T01:06:32;97763.91;;;16.59;42.64
30873;BME280;17579;42.690;2.586;2023-11-19T01:08:58;97772.44;;;16.54;42.83
30873;BME280;17579;42.690;2.586;2023-11-19T01:11:24;97772.13;;;16.49;43.09
30873;BME280;17579;42.690;2.586;2023-11-19T01:13:53;97763.78;;;16.44;43.30
30873;BME280;17579;42.690;2.586;2023-11-19T01:16:19;97757.94;;;16.40;43.20
30873;BME280;17579;42.690;2.586;2023-11-19T01:18:48;97761.66;;;16.39;43.40
30873;BME280;17579;42.690;2.586;2023-11-19T01:21:14;97760.97;;;16.37;43.40
30873;BME280;17579;42.690;2.586;2023-11-19T01:23:58;97764.63;;;16.36;43.55
30873;BME280;17579;42.690;2.586;2023-11-19T01:26:24;97757.47;;;16.37;43.79
30873;BME280;17579;42.690;2.586;2023-11-19T01:28:55;97760.47;;;16.34;43.90
30873;BME280;17579;42.690;2.586;2023-11-19T01:31:20;97755.16;;;16.34;43.62
30873;BME280;17579;42.690;2.586;2023-11-19T01:33:46;97763.31;;;16.32;43.86
30873;BME280;17579;42.690;2.586;2023-11-19T01:36:13;97760.97;;;16.29;43.80
30873;BME280;17579;42.690;2.586;2023-11-19T01:38:45;97749.00;;;16.25;43.48
30873;BME280;17579;42.690;2.586;2023-11-19T01:41:11;97753.13;;;16.27;43.46
30873;BME280;17579;42.690;2.586;2023-11-19T01:46:24;97752.81;;;16.31;42.91
30873;BME280;17579;42.690;2.586;2023-11-19T01:49:03;97749.97;;;16.24;43.12
30873;BME280;17579;42.690;2.586;2023-11-19T01:51:30;97748.47;;;16.21;43.20
30873;BME280;17579;42.690;2.586;2023-11-19T01:54:08;97751.16;;;16.21;43.25
30873;BME280;17579;42.690;2.586;2023-11-19T01:56:37;97747.66;;;16.21;43.05
30873;BME280;17579;42.690;2.586;2023-11-19T01:59:09;97740.47;;;16.13;43.46
30873;BME280;17579;42.690;2.586;2023-11-19T02:01:40;97742.50;;;16.11;43.34
30873;BME280;17579;42.690;2.586;2023-11-19T02:04:07;97744.16;;;16.12;43.78
30873;BME280;17579;42.690;2.586;2023-11-19T02:06:42;97729.31;;;16.09;43.59
30873;BME280;17579;42.690;2.586;2023-11-19T02:09:08;97727.97;;;16.14;43.61
30873;BME280;17579;42.690;2.586;2023-11-19T02:11:35;97728.31;;;16.10;43.94
30873;BME280;17579;42.690;2.586;2023-11-19T02:14:01;97731.00;;;16.10;43.81
30873;BME280;17579;42.690;2.586;2023-11-19T02:16:28;97724.63;;;16.11;43.87
30873;BME280;17579;42.690;2.586;2023-11-19T02:18:58;97726.97;;;16.15;44.40
30873;BME280;17579;42.690;2.586;2023-11-19T02:21:35;97720.28;;;16.19;44.19
30873;BME280;17579;42.690;2.586;2023-11-19T02:24:05;97727.63;;;16.17;43.87
30873;BME280;17579;42.690;2.586;2023-11-19T02:26:40;97727.97;;;16.14;44.22
30873;BME280;17579;42.690;2.586;2023-11-19T02:29:11;97729.63;;;16.15;44.06
30873;BME280;17579;42.690;2.586;2023-11-19T02:31:38;97731.47;;;16.14;44.15
30873;BME280;17579;42.690;2.586;2023-11-19T02:34:04;97722.31;;;16.17;44.56
30873;BME280;17579;42.690;2.586;2023-11-19T02:36:31;97724.81;;;16.18;44.60
30873;BME280;17579;42.690;2.586;2023-11-19T02:38:58;97726.66;;;16.18;44.10
30873;BME280;17579;42.690;2.586;2023-11-19T02:41:26;97722.13;;;16.18;44.51
30873;BME280;17579;42.690;2.586;2023-11-19T02:43:59;97724.28;;;16.23;44.01
30873;BME280;17579;42.690;2.586;2023-11-19T02:46:39;97719.28;;;16.20;43.94
30873;BME280;17579;42.690;2.586;2023-11-19T02:49:07;97718.13;;;16.22;44.39
30873;BME280;17579;42.690;2.586;2023-11-19T02:51:36;97718.94;;;16.23;44.05
30873;BME280;17579;42.690;2.586;2023-11-19T02:54:04;97717.44;;;16.20;43.71
30873;BME280;17579;42.690;2.586;2023-11-19T02:56:36;97724.47;;;16.21;43.95
30873;BME280;17579;42.690;2.586;2023-11-19T02:59:10;97716.97;;;16.17;44.04
30873;BME280;17579;42.690;2.586;2023-11-19T03:01:52;97716.44;;;16.21;43.73
30873;BME280;17579;42.690;2.586;2023-11-19T03:04:19;97719.13;;;16.21;44.21
30873;BME280;17579;42.690;2.586;2023-11-19T03:06:48;97714.59;;;16.22;44.03
30873;BME280;17579;42.690;2.586;2023-11-19T03:09:14;97714.59;;;16.22;43.87
30873;BME280;17579;42.690;2.586;2023-11-19T03:11:44;97708.78;;;16.18;44.31
30873;BME280;17579;42.690;2.586;2023-11-19T03:14:17;97716.97;;;16.17;44.23
30873;BME280;17579;42.690;2.586;2023-11-19T03:19:38;97715.97;;;16.18;44.10
30873;BME280;17579;42.690;2.586;2023-11-19T03:22:09;97723.28;;;16.16;43.91
30873;BME280;17579;42.690;2.586;2023-11-19T03:24:40;97709.13;;;16.15;43.97
30873;BME280;17579;42.690;2.586;2023-11-19T03:27:05;97707.13;;;16.17;43.67
30873;BME280;17579;42.690;2.586;2023-11-19T03:29:36;97709.13;;;16.15;43.85
30873;BME280;17579;42.690;2.586;2023-11-19T03:32:11;97711.28;;;16.11;43.90
30873;BME280;17579;42.690;2.586;2023-11-19T03:34:37;97712.31;;;16.10;43.53
30873;BME280;17579;42.690;2.586;2023-11-19T03:37:03;97706.28;;;16.08;44.02
30873;BME280;17579;42.690;2.586;2023-11-19T03:39:32;97711.97;;;16.05;44.00
30873;BME280;17579;42.690;2.586;2023-11-19T03:41:58;97703.31;;;16.03;44.04
30873;BME280;17579;42.690;2.586;2023-11-19T03:44:23;97699.97;;;16.01;43.93
30873;BME280;17579;42.690;2.586;2023-11-19T03:46:51;97700.13;;;16.00;44.31
30873;BME280;17579;42.690;2.586;2023-11-19T03:49:17;97696.66;;;15.99;43.99
30873;BME280;17579;42.690;2.586;2023-11-19T03:51:43;97701.97;;;15.99;44.04
30873;BME280;17579;42.690;2.586;2023-11-19T03:54:15;97697.81;;;15.97;43.84
30873;BME280;17579;42.690;2.586;2023-11-19T03:56:44;97697.13;;;15.94;43.83
30873;BME280;17579;42.690;2.586;2023-11-19T03:59:33;97708.81;;;15.85;43.95
30873;BME280;17579;42.690;2.586;2023-11-19T04:02:04;97704.81;;;15.89;43.99
30873;BME280;17579;42.690;2.586;2023-11-19T04:04:30;97706.16;;;15.85;44.15
30873;BME280;17579;42.690;2.586;2023-11-19T04:07:00;97707.31;;;15.83;44.14
30873;BME280;17579;42.690;2.586;2023-11-19T04:09:46;97704.16;;;15.79;44.24
30873;BME280;17579;42.690;2.586;2023-11-19T04:12:12;97712.00;;;15.81;44.68
30873;BME280;17579;42.690;2.586;2023-11-19T04:14:56;97710.97;;;15.73;44.41
30873;BME280;17579;42.690;2.586;2023-11-19T04:17:22;97709.81;;;15.76;44.66
30873;BME280;17579;42.690;2.586;2023-11-19T04:19:50;97719.31;;;15.70;44.75
30873;BME280;17579;42.690;2.586;2023-11-19T04:22:19;97709.63;;;15.69;44.44
30873;BME280;17579;42.690;2.586;2023-11-19T04:24:45;97715.13;;;15.68;44.79
30873;BME280;17579;42.690;2.586;2023-11-19T04:27:20;97708.13;;;15.67;45.09
30873;BME280;17579;42.690;2.586;2023-11-19T04:29:45;97714.13;;;15.69;44.90
30873;BME280;17579;42.690;2.586;2023-11-19T04:32:16;97714.13;;;15.69;44.95
30873;BME280;17579;42.690;2.586;2023-11-19T04:34:42;97708.94;;;15.67;44.77
30873;BME280;17579;42.690;2.586;2023-11-19T04:37:07;97711.47;;;15.69;45.15
30873;BME280;17579;42.690;2.586;2023-11-19T04:39:33;97718.63;;;15.68;45.08
30873;BME280;17579;42.690;2.586;2023-11-19T04:41:58;97719.47;;;15.69;44.99
30873;BME280;17579;42.690;2.586;2023-11-19T04:44:24;97722.13;;;15.69;45.16
30873;BME280;17579;42.690;2.586;2023-11-19T04:47:18;97721.78;;;15.64;44.88
30873;BME280;17579;42.690;2.586;2023-11-19T04:49:46;97714.78;;;15.71;44.70
30873;BME280;17579;42.690;2.586;2023-11-19T04:52:32;97716.47;;;15.72;44.74
30873;BME280;17579;42.690;2.586;2023-11-19T04:54:58;97714.63;;;15.72;44.55
30873;BME280;17579;42.690;2.586;2023-11-19T04:57:44;97713.44;;;15.67;44.72
30873;BME280;17579;42.690;2.586;2023-11-19T05:00:16;97709.13;;;15.74;44.73
30873;BME280;17579;42.690;2.586;2023-11-19T05:02:42;97709.47;;;15.71;44.40
30873;BME280;17579;42.690;2.586;2023-11-19T05:05:08;97721.81;;;15.72;44.76
30873;BME280;17579;42.690;2.586;2023-11-19T05:07:40;97712.94;;;15.71;44.67
30873;BME280;17579;42.690;2.586;2023-11-19T05:10:05;97709.28;;;15.72;44.21
30873;BME280;17579;42.690;2.586;2023-11-19T05:12:35;97705.97;;;15.70;44.44
30873;BME280;17579;42.690;2.586;2023-11-19T05:15:13;97708.63;;;15.70;44.68
30873;BME280;17579;42.690;2.586;2023-11-19T05:17:44;97709.63;;;15.69;44.48
30873;BME280;17579;42.690;2.586;2023-11-19T05:20:22;97710.47;;;15.62;44.44
30873;BME280;17579;42.690;2.586;2023-11-19T05:22:47;97711.63;;;15.59;44.51
30873;BME280;17579;42.690;2.586;2023-11-19T05:25:17;97712.59;;;15.50;44.72
30873;BME280;17579;42.690;2.586;2023-11-19T05:28:06;97708.75;;;15.44;44.91
30873;BME280;17579;42.690;2.586;2023-11-19T05:30:33;97709.78;;;15.43;44.86
30873;BME280;17579;42.690;2.586;2023-11-19T05:33:02;97711.94;;;15.39;44.64
30873;BME280;17579;42.690;2.586;2023-11-19T05:35:36;97711.28;;;15.37;44.61
30873;BME280;17579;42.690;2.586;2023-11-19T05:38:02;97714.59;;;15.39;44.56
30873;BME280;17579;42.690;2.586;2023-11-19T05:40:27;97720.09;;;15.38;45.11
30873;BME280;17579;42.690;2.586;2023-11-19T05:42:58;97717.25;;;15.39;44.91
30873;BME280;17579;42.690;2.586;2023-11-19T05:45:31;97714.59;;;15.39;44.95
30873;BME280;17579;42.690;2.586;2023-11-19T05:47:57;97718.94;;;15.40;44.97
30873;BME280;17579;42.690;2.586;2023-11-19T05:50:33;97718.78;;;15.42;44.79
30873;BME280;17579;42.690;2.586;2023-11-19T05:52:59;97720.44;;;15.43;44.88
30873;BME280;17579;42.690;2.586;2023-11-19T05:55:34;97721.28;;;15.44;44.98
30873;BME280;17579;42.690;2.586;2023-11-19T05:58:00;97720.28;;;15.45;45.05
30873;BME280;17579;42.690;2.586;2023-11-19T06:00:37;97716.75;;;15.44;44.62
30873;BME280;17579;42.690;2.586;2023-11-19T06:03:02;97719.44;;;15.44;44.81
30873;BME280;17579;42.690;2.586;2023-11-19T06:05:29;97718.59;;;15.44;44.53
30873;BME280;17579;42.690;2.586;2023-11-19T06:07:58;97721.59;;;15.40;44.62
30873;BME280;17579;42.690;2.586;2023-11-19T06:10:26;97732.09;;;15.42;45.12
30873;BME280;17579;42.690;2.586;2023-11-19T06:13:04;97725.75;;;15.35;45.00
30873;BME280;17579;42.690;2.586;2023-11-19T06:15:30;97732.75;;;15.36;44.70
30873;BME280;17579;42.690;2.586;2023-11-19T06:18:06;97725.72;;;15.27;44.96
30873;BME280;17579;42.690;2.586;2023-11-19T06:20:41;97723.59;;;15.30;44.84
30873;BME280;17579;42.690;2.586;2023-11-19T06:23:07;97722.06;;;15.28;45.00
30873;BME280;17579;42.690;2.586;2023-11-19T06:25:45;97720.56;;;15.25;45.17
30873;BME280;17579;42.690;2.586;2023-11-19T06:28:11;97726.41;;;15.29;45.07
30873;BME280;17579;42.690;2.586;2023-11-19T06:30:48;97726.59;;;15.27;45.04
30873;BME280;17579;42.690;2.586;2023-11-19T06:33:14;97722.56;;;15.31;44.67
30873;BME280;17579;42.690;2.586;2023-11-19T06:35:43;97729.56;;;15.32;45.25
30873;BME280;17579;42.690;2.586;2023-11-19T06:38:09;97733.59;;;15.36;45.07
30873;BME280;17579;42.690;2.586;2023-11-19T06:40:37;97728.75;;;15.40;45.05
30873;BME280;17579;42.690;2.586;2023-11-19T06:43:06;97737.44;;;15.42;45.16
30873;BME280;17579;42.690;2.586;2023-11-19T06:45:34;97729.44;;;15.42;44.89
30873;BME280;17579;42.690;2.586;2023-11-19T06:48:02;97724.09;;;15.42;44.92
30873;BME280;17579;42.690;2.586;2023-11-19T06:50:30;97723.56;;;15.38;44.71
30873;BME280;17579;42.690;2.586;2023-11-19T06:53:05;97728.25;;;15.36;45.05
30873;BME280;17579;42.690;2.586;2023-11-19T06:55:31;97731.91;;;15.35;44.82
30873;BME280;17579;42.690;2.586;2023-11-19T06:58:17;97725.75;;;15.35;44.96
30873;BME280;17579;42.690;2.586;2023-11-19T07:00:46;97725.91;;;15.33;44.89
30873;BME280;17579;42.690;2.586;2023-11-19T07:03:14;97731.75;;;15.37;45.11
30873;BME280;17579;42.690;2.586;2023-11-19T07:05:39;97730.59;;;15.39;45.24
30873;BME280;17579;42.690;2.586;2023-11-19T07:08:08;97731.28;;;15.41;44.85
30873;BME280;17579;42.690;2.586;2023-11-19T07:10:34;97730.78;;;15.46;45.19
30873;BME280;17579;42.690;2.586;2023-11-19T07:13:03;97730.59;;;15.48;44.92
30873;BME280;17579;42.690;2.586;2023-11-19T07:15:31;97734.78;;;15.50;45.11
30873;BME280;17579;42.690;2.586;2023-11-19T07:18:03;97730.09;;;15.52;45.31
30873;BME280;17579;42.690;2.586;2023-11-19T07:20:32;97740.94;;;15.59;44.97
30873;BME280;17579;42.690;2.586;2023-11-19T07:23:13;97742.28;;;15.63;45.30
30873;BME280;17579;42.690;2.586;2023-11-19T07:25:43;97740.81;;;15.69;44.74
30873;BME280;17579;42.690;2.586;2023-11-19T07:28:21;97741.13;;;15.74;45.43
30873;BME280;17579;42.690;2.586;2023-11-19T07:30:57;97744.31;;;15.77;45.37
30873;BME280;17579;42.690;2.586;2023-11-19T07:33:25;97750.16;;;15.81;45.41
30873;BME280;17579;42.690;2.586;2023-11-19T07:35:51;97743.66;;;15.84;44.89
30873;BME280;17579;42.690;2.586;2023-11-19T07:38:19;97744.84;;;15.89;45.14
30873;BME280;17579;42.690;2.586;2023-11-19T07:40:48;97753.66;;;15.90;44.96
30873;BME280;17579;42.690;2.586;2023-11-19T07:43:13;97747.69;;;15.96;44.93
30873;BME280;17579;42.690;2.586;2023-11-19T07:45:59;97746.81;;;15.96;45.17
30873;BME280;17579;42.690;2.586;2023-11-19T07:48:25;97758.50;;;16.11;45.44
30873;BME280;17579;42.690;2.586;2023-11-19T07:50:54;97758.16;;;16.14;45.19
30873;BME280;17579;42.690;2.586;2023-11-19T07:53:29;97752.13;;;16.20;45.09
30873;BME280;17579;42.690;2.586;2023-11-19T07:55:54;97756.31;;;16.23;45.29
30873;BME280;17579;42.690;2.586;2023-11-19T07:58:22;97755.81;;;16.27;45.21
30873;BME280;17579;42.690;2.586;2023-11-19T08:00:48;97753.28;;;16.34;45.51
30873;BME280;17579;42.690;2.586;2023-11-19T08:03:34;97761.81;;;16.38;45.54
30873;BME280;17579;42.690;2.586;2023-11-19T08:06:00;97756.94;;;16.50;45.08
30873;BME280;17579;42.690;2.586;2023-11-19T08:08:29;97761.13;;;16.52;45.31
30873;BME280;17579;42.690;2.586;2023-11-19T08:10:56;97767.44;;;16.59;44.95
30873;BME280;17579;42.690;2.586;2023-11-19T08:13:23;97768.59;;;16.65;44.98
30873;BME280;17579;42.690;2.586;2023-11-19T08:15:49;97770.41;;;16.73;44.65
30873;BME280;17579;42.690;2.586;2023-11-19T08:18:46;97770.38;;;16.81;43.98
30873;BME280;17579;42.690;2.586;2023-11-19T08:21:32;97772.34;;;16.87;43.73
30873;BME280;17579;42.690;2.586;2023-11-19T08:24:16;97783.22;;;16.86;44.01
30873;BME280;17579;42.690;2.586;2023-11-19T08:26:41;97780.69;;;17.01;43.74
30873;BME280;17579;42.690;2.586;2023-11-19T08:29:07;97778.16;;;17.07;43.72
30873;BME280;17579;42.690;2.586;2023-11-19T08:31:34;97776.09;;;17.18;43.81
30873;BME280;17579;42.690;2.586;2023-11-19T08:34:20;97771.88;;;17.31;44.05
30873;BME280;17579;42.690;2.586;2023-11-19T08:36:50;97772.66;;;17.40;43.65
30873;BME280;17579;42.690;2.586;2023-11-19T08:41:57;97772.84;;;17.62;43.19
30873;BME280;17579;42.690;2.586;2023-11-19T08:44:43;97774.44;;;17.71;43.08
30873;BME280;17579;42.690;2.586;2023-11-19T08:47:16;97773.19;;;17.90;42.54
30873;BME280;17579;42.690;2.586;2023-11-19T08:49:46;97771.66;;;17.96;42.44
30873;BME280;17579;42.690;2.586;2023-11-19T08:52:15;97773.88;;;18.07;42.57
30873;BME280;17579;42.690;2.586;2023-11-19T08:54:42;97772.25;;;18.21;42.98
30873;BME280;17579;42.690;2.586;2023-11-19T08:57:13;97784.75;;;18.29;42.77
30873;BME280;17579;42.690;2.586;2023-11-19T08:59:39;97780.97;;;18.38;42.06
30873;BME280;17579;42.690;2.586;2023-11-19T09:02:05;97781.44;;;18.42;42.07
30873;BME280;17579;42.690;2.586;2023-11-19T09:04:37;97774.06;;;18.44;42.02
30873;BME280;17579;42.690;2.586;2023-11-19T09:07:06;97778.31;;;18.53;42.17
30873;BME280;17579;42.690;2.586;2023-11-19T09:09:34;97779.44;;;18.59;42.19
30873;BME280;17579;42.690;2.586;2023-11-19T09:12:05;97779.66;;;18.72;42.03
30873;BME280;17579;42.690;2.586;2023-11-19T09:14:40;97776.16;;;18.86;41.52
30873;BME280;17579;42.690;2.586;2023-11-19T09:17:12;97776.16;;;19.01;40.96
30873;BME280;17579;42.690;2.586;2023-11-19T09:19:43;97778.66;;;19.18;40.76
30873;BME280;17579;42.690;2.586;2023-11-19T09:22:12;97773.81;;;19.28;39.99
30873;BME280;17579;42.690;2.586;2023-11-19T09:24:43;97775.34;;;19.37;40.02
30873;BME280;17579;42.690;2.586;2023-11-19T09:27:12;97768.16;;;19.38;39.38
30873;BME280;17579;42.690;2.586;2023-11-19T09:29:48;97761.75;;;19.39;39.98
30873;BME280;17579;42.690;2.586;2023-11-19T09:35:06;97758.47;;;19.59;38.43
30873;BME280;17579;42.690;2.586;2023-11-19T09:37:32;97766.13;;;19.62;38.39
30873;BME280;17579;42.690;2.586;2023-11-19T09:40:03;97760.66;;;19.70;38.63
30873;BME280;17579;42.690;2.586;2023-11-19T09:42:40;97755.34;;;19.77;38.61
30873;BME280;17579;42.690;2.586;2023-11-19T09:45:14;97763.56;;;19.90;38.01
30873;BME280;17579;42.690;2.586;2023-11-19T09:47:46;97761.56;;;19.99;38.27
30873;BME280;17579;42.690;2.586;2023-11-19T09:50:17;97762.91;;;20.10;37.79
30873;BME280;17579;42.690;2.586;2023-11-19T09:53:06;97766.47;;;20.17;37.97
30873;BME280;17579;42.690;2.586;2023-11-19T09:55:32;97765.13;;;20.28;37.54
30873;BME280;17579;42.690;2.586;2023-11-19T09:58:01;97763.13;;;20.36;36.89
30873;BME280;17579;42.690;2.586;2023-11-19T10:00:27;97763.19;;;20.43;36.53
30873;BME280;17579;42.690;2.586;2023-11-19T10:02:54;97763.19;;;20.43;36.69
30873;BME280;17579;42.690;2.586;2023-11-19T10:05:23;97761.72;;;20.40;36.52
30873;BME280;17579;42.690;2.586;2023-11-19T10:07:55;97755.16;;;20.50;37.07
30873;BME280;17579;42.690;2.586;2023-11-19T10:10:24;97758.56;;;20.65;36.95
30873;BME280;17579;42.690;2.586;2023-11-19T10:12:52;97747.53;;;20.82;37.09
30873;BME280;17579;42.690;2.586;2023-11-19T10:15:28;97754.25;;;20.99;37.23
30873;BME280;17579;42.690;2.586;2023-11-19T10:18:01;97748.09;;;21.19;37.00
30873;BME280;17579;42.690;2.586;2023-11-19T10:20:34;97752.09;;;21.29;37.11
30873;BME280;17579;42.690;2.586;2023-11-19T10:23:03;97750.44;;;21.35;37.16
30873;BME280;17579;42.690;2.586;2023-11-19T10:25:32;97736.22;;;21.48;37.44
30873;BME280;17579;42.690;2.586;2023-11-19T10:27:59;97736.25;;;21.61;37.16
30873;BME280;17579;42.690;2.586;2023-11-19T10:30:31;97734.63;;;21.67;37.32
30873;BME280;17579;42.690;2.586;2023-11-19T10:36:19;97734.22;;;21.90;36.69
30873;BME280;17579;42.690;2.586;2023-11-19T10:38:51;97734.66;;;22.01;36.50
30873;BME280;17579;42.690;2.586;2023-11-19T10:41:40;97726.78;;;22.12;36.39
30873;BME280;17579;42.690;2.586;2023-11-19T10:47:06;97720.97;;;22.29;36.93
30873;BME280;17579;42.690;2.586;2023-11-19T10:49:33;97707.94;;;22.39;36.22
30873;BME280;17579;42.690;2.586;2023-11-19T10:52:01;97717.25;;;22.50;35.93
30873;BME280;17579;42.690;2.586;2023-11-19T10:54:28;97714.13;;;22.60;36.10
30873;BME280;17579;42.690;2.586;2023-11-19T10:57:02;97717.81;;;22.65;36.02
30873;BME280;17579;42.690;2.586;2023-11-19T10:59:34;97709.50;;;22.74;35.71
30873;BME280;17579;42.690;2.586;2023-11-19T11:02:13;97704.97;;;22.74;36.56
30873;BME280;17579;42.690;2.586;2023-11-19T11:04:47;97699.72;;;22.86;36.08
30873;BME280;17579;42.690;2.586;2023-11-19T11:07:15;97695.31;;;22.98;35.71
30873;BME280;17579;42.690;2.586;2023-11-19T11:09:47;97702.56;;;23.05;35.12
30873;BME280;17579;42.690;2.586;2023-11-19T11:12:36;97689.91;;;22.98;36.27
30873;BME280;17579;42.690;2.586;2023-11-19T11:15:05;97691.78;;;23.05;35.62
30873;BME280;17579;42.690;2.586;2023-11-19T11:17:39;97692.00;;;23.03;35.54
30873;BME280;17579;42.690;2.586;2023-11-19T11:20:05;97683.03;;;23.02;35.15
30873;BME280;17579;42.690;2.586;2023-11-19T11:22:55;97682.22;;;23.02;35.96
30873;BME280;17579;42.690;2.586;2023-11-19T11:25:38;97682.59;;;23.19;35.54
30873;BME280;17579;42.690;2.586;2023-11-19T11:28:18;97680.06;;;23.24;35.53
30873;BME280;17579;42.690;2.586;2023-11-19T11:36:58;97672.47;;;23.46;35.61
30873;BME280;17579;42.690;2.586;2023-11-19T11:39:35;97667.69;;;23.48;35.17
30873;BME280;17579;42.690;2.586;2023-11-19T11:50:08;97663.69;;;23.58;34.77
30873;BME280;17579;42.690;2.586;2023-11-19T11:57:56;97657.22;;;23.91;34.41
30873;BME280;17579;42.690;2.586;2023-11-19T12:00:32;97651.81;;;23.91;34.43
30873;BME280;17579;42.690;2.586;2023-11-19T12:03:06;97653.84;;;23.95;34.11
30873;BME280;17579;42.690;2.586;2023-11-19T12:05:40;97647.38;;;23.96;33.88
30873;BME280;17579;42.690;2.586;2023-11-19T12:08:11;97644.91;;;23.95;33.94
30873;BME280;17579;42.690;2.586;2023-11-19T12:13:56;97648.44;;;23.95;34.13
30873;BME280;17579;42.690;2.586;2023-11-19T12:16:26;97647.59;;;23.95;33.85
30873;BME280;17579;42.690;2.586;2023-11-19T12:18:54;97649.72;;;23.93;33.83
30873;BME280;17579;42.690;2.586;2023-11-19T12:23:55;97643.59;;;24.04;33.73
30873;BME280;17579;42.690;2.586;2023-11-19T12:29:02;97635.44;;;24.11;33.54
30873;BME280;17579;42.690;2.586;2023-11-19T12:31:54;97631.06;;;24.10;33.95
30873;BME280;17579;42.690;2.586;2023-11-19T12:34:23;97630.97;;;24.16;33.56
30873;BME280;17579;42.690;2.586;2023-11-19T12:36:58;97625.28;;;24.25;33.90
30873;BME280;17579;42.690;2.586;2023-11-19T12:39:34;97619.97;;;24.36;32.93
30873;BME280;17579;42.690;2.586;2023-11-19T12:42:05;97623.88;;;24.41;32.94
30873;BME280;17579;42.690;2.586;2023-11-19T12:44:30;97615.53;;;24.42;33.06
30873;BME280;17579;42.690;2.586;2023-11-19T12:47:16;97620.41;;;24.33;33.79
30873;BME280;17579;42.690;2.586;2023-11-19T12:49:55;97617.94;;;24.32;33.35
30873;BME280;17579;42.690;2.586;2023-11-19T12:52:21;97619.38;;;24.34;32.90
30873;BME280;17579;42.690;2.586;2023-11-19T12:54:49;97617.72;;;24.33;33.33
30873;BME280;17579;42.690;2.586;2023-11-19T13:00:04;97610.34;;;24.41;33.30
30873;BME280;17579;42.690;2.586;2023-11-19T13:05:24;97612.09;;;24.35;33.30
30873;BME280;17579;42.690;2.586;2023-11-19T13:08:12;97604.59;;;24.37;33.03
30873;BME280;17579;42.690;2.586;2023-11-19T13:13:26;97598.56;;;24.53;32.90
30873;BME280;17579;42.690;2.586;2023-11-19T13:15:51;97606.91;;;24.52;33.03
30873;BME280;17579;42.690;2.586;2023-11-19T13:18:17;97591.72;;;24.51;32.78
30873;BME280;17579;42.690;2.586;2023-11-19T13:20:45;97598.78;;;24.52;33.53
30873;BME280;17579;42.690;2.586;2023-11-19T13:23:11;97590.22;;;24.55;32.57
30873;BME280;17579;42.690;2.586;2023-11-19T13:25:37;97586.94;;;24.53;32.91
30873;BME280;17579;42.690;2.586;2023-11-19T13:28:08;97588.19;;;24.50;33.08
30873;BME280;17579;42.690;2.586;2023-11-19T13:30:56;97580.72;;;24.52;32.92
30873;BME280;17579;42.690;2.586;2023-11-19T13:33:26;97587.16;;;24.51;33.10
30873;BME280;17579;42.690;2.586;2023-11-19T13:35:55;97587.16;;;24.51;33.09
30873;BME280;17579;42.690;2.586;2023-11-19T13:38:20;97594.34;;;24.58;33.31
30873;BME280;17579;42.690;2.586;2023-11-19T13:41:10;97588.72;;;24.59;33.38
30873;BME280;17579;42.690;2.586;2023-11-19T13:43:46;97585.00;;;24.60;32.80
30873;BME280;17579;42.690;2.586;2023-11-19T13:46:32;97589.41;;;24.54;33.03
30873;BME280;17579;42.690;2.586;2023-11-19T13:49:03;97579.97;;;24.45;33.36
30873;BME280;17579;42.690;2.586;2023-11-19T13:51:31;97590.16;;;24.43;33.50
30873;BME280;17579;42.690;2.586;2023-11-19T13:54:17;97596.78;;;24.47;33.20
30873;BME280;17579;42.690;2.586;2023-11-19T13:56:47;97593.47;;;24.45;33.20
30873;BME280;17579;42.690;2.586;2023-11-19T13:59:15;97597.06;;;24.39;33.67
30873;BME280;17579;42.690;2.586;2023-11-19T14:01:41;97593.31;;;24.40;34.00
30873;BME280;17579;42.690;2.586;2023-11-19T14:04:14;97598.72;;;24.40;33.75
30873;BME280;17579;42.690;2.586;2023-11-19T14:06:48;97601.88;;;24.37;33.90
30873;BME280;17579;42.690;2.586;2023-11-19T14:09:13;97596.19;;;24.45;34.05
30873;BME280;17579;42.690;2.586;2023-11-19T14:11:39;97594.22;;;24.52;33.74
30873;BME280;17579;42.690;2.586;2023-11-19T14:14:06;97592.13;;;24.54;33.76